createdAt,value
2018-09-14T00:02:26.588Z,9.16
2018-09-14T00:05:02.679Z,8.98
2018-09-14T00:07:36.184Z,8.82
2018-09-14T00:10:09.904Z,8.71
2018-09-14T00:12:44.895Z,8.64
2018-09-14T00:15:16.644Z,8.56
2018-09-14T00:17:51.044Z,8.52
2018-09-14T00:20:23.974Z,8.58
2018-09-14T00:22:56.602Z,8.64
2018-09-14T00:25:30.092Z,8.62
2018-09-14T00:28:04.356Z,8.59
2018-09-14T00:30:36.884Z,8.68
2018-09-14T00:33:09.425Z,8.86
2018-09-14T00:35:42.480Z,8.91
2018-09-14T00:38:15.013Z,9.02
2018-09-14T00:40:47.592Z,9.15
2018-09-14T00:43:20.500Z,9.27
2018-09-14T00:45:53.150Z,9.34
2018-09-14T00:48:27.964Z,9.40
2018-09-14T00:51:00.780Z,9.24
2018-09-14T00:53:34.807Z,9.20
2018-09-14T00:56:07.463Z,9.16
2018-09-14T00:58:40.370Z,9.14
2018-09-14T01:01:13.557Z,9.05
2018-09-14T01:03:46.084Z,8.81
2018-09-14T01:06:19.292Z,8.81
2018-09-14T01:08:52.111Z,8.95
2018-09-14T01:11:25.613Z,8.85
2018-09-14T01:13:58.704Z,8.61
2018-09-14T01:16:31.216Z,8.48
2018-09-14T01:19:03.856Z,8.44
2018-09-14T01:21:36.736Z,8.59
2018-09-14T01:24:09.636Z,8.58
2018-09-14T01:26:42.783Z,8.39
2018-09-14T01:29:16.216Z,8.27
2018-09-14T01:31:48.836Z,8.15
2018-09-14T01:34:21.668Z,8.22
2018-09-14T01:36:55.857Z,8.32
2018-09-14T01:39:28.894Z,8.21
2018-09-14T01:42:01.467Z,8.09
2018-09-14T01:44:34.411Z,8.00
2018-09-14T01:47:07.052Z,7.95
2018-09-14T01:49:40.563Z,8.01
2018-09-14T01:52:13.339Z,8.17
2018-09-14T01:54:45.923Z,8.41
2018-09-14T01:57:19.020Z,8.38
2018-09-14T01:59:51.566Z,8.21
2018-09-14T02:02:24.176Z,8.07
2018-09-14T02:04:57.117Z,8.03
2018-09-14T02:07:32.311Z,8.01
2018-09-14T02:10:05.713Z,7.89
2018-09-14T02:12:38.292Z,7.77
2018-09-14T02:15:12.296Z,7.70
2018-09-14T02:17:45.380Z,7.72
2018-09-14T02:20:19.227Z,7.81
2018-09-14T02:22:51.940Z,7.84
2018-09-14T02:25:24.909Z,7.88
2018-09-14T02:27:57.456Z,7.94
2018-09-14T02:30:30.240Z,7.95
2018-09-14T02:33:03.205Z,8.24
2018-09-14T02:35:35.776Z,8.54
2018-09-14T02:38:08.390Z,8.57
2018-09-14T02:40:41.373Z,8.48
2018-09-14T02:43:13.990Z,8.47
2018-09-14T02:45:46.499Z,8.51
2018-09-14T02:48:19.775Z,8.51
2018-09-14T02:50:52.472Z,8.44
2018-09-14T02:53:25.877Z,8.34
2018-09-14T02:55:59.022Z,8.33
2018-09-14T02:58:32.488Z,8.42
2018-09-14T03:01:06.998Z,8.30
2018-09-14T03:03:39.896Z,8.09
2018-09-14T03:06:13.244Z,8.06
2018-09-14T03:08:45.916Z,8.19
2018-09-14T03:11:18.824Z,8.11
2018-09-14T03:13:51.404Z,7.99
2018-09-14T03:16:24.956Z,7.98
2018-09-14T03:18:58.169Z,8.09
2018-09-14T03:21:30.732Z,8.12
2018-09-14T03:24:04.004Z,8.20
2018-09-14T03:26:36.988Z,8.26
2018-09-14T03:29:09.580Z,8.22
2018-09-14T03:31:42.135Z,8.30
2018-09-14T03:34:15.567Z,8.36
2018-09-14T03:36:48.073Z,8.29
2018-09-14T03:39:21.298Z,8.19
2018-09-14T03:41:53.917Z,8.07
2018-09-14T03:44:26.468Z,7.82
2018-09-14T03:46:59.016Z,7.59
2018-09-14T03:49:31.857Z,7.40
2018-09-14T03:52:04.396Z,7.34
2018-09-14T03:54:37.786Z,7.30
2018-09-14T03:57:10.724Z,7.38
2018-09-14T03:59:43.126Z,7.58
2018-09-14T04:02:18.812Z,7.73
2018-09-14T04:04:52.828Z,7.82
2018-09-14T04:07:25.357Z,7.78
2018-09-14T04:09:58.021Z,7.68
2018-09-14T04:12:31.140Z,7.67
2018-09-14T04:15:05.213Z,7.65
2018-09-14T04:17:38.115Z,7.65
2018-09-14T04:20:11.646Z,7.58
2018-09-14T04:22:44.204Z,7.51
2018-09-14T04:25:17.037Z,7.45
2018-09-14T04:27:49.987Z,7.36
2018-09-14T04:30:22.624Z,7.26
2018-09-14T04:32:55.993Z,7.17
2018-09-14T04:35:28.812Z,7.17
2018-09-14T04:38:02.423Z,7.15
2018-09-14T04:40:34.977Z,7.11
2018-09-14T04:43:07.762Z,7.11
2018-09-14T04:45:40.957Z,7.06
2018-09-14T04:48:13.531Z,6.98
2018-09-14T04:50:46.157Z,6.88
2018-09-14T04:53:19.037Z,6.82
2018-09-14T04:55:53.348Z,6.75
2018-09-14T04:58:26.077Z,6.68
2018-09-14T05:00:59.097Z,6.69
2018-09-14T05:03:31.657Z,6.73
2018-09-14T05:06:05.211Z,6.74
2018-09-14T05:08:38.452Z,6.79
2018-09-14T05:11:11.042Z,6.78
2018-09-14T05:13:43.949Z,6.76
2018-09-14T05:16:17.213Z,6.85
2018-09-14T05:18:50.001Z,6.81
2018-09-14T05:21:22.741Z,6.71
2018-09-14T05:23:57.168Z,6.67
2018-09-14T05:26:29.549Z,6.61
2018-09-14T05:29:02.151Z,6.63
2018-09-14T05:31:35.036Z,6.70
2018-09-14T05:34:07.592Z,6.82
2018-09-14T05:36:41.223Z,6.87
2018-09-14T05:39:14.438Z,6.79
2018-09-14T05:41:48.480Z,6.79
2018-09-14T05:44:21.148Z,6.77
2018-09-14T05:46:54.322Z,6.85
2018-09-14T05:49:26.880Z,7.02
2018-09-14T05:52:00.749Z,7.08
2018-09-14T05:54:33.374Z,7.09
2018-09-14T05:57:06.016Z,7.07
2018-09-14T05:59:40.840Z,7.12
2018-09-14T06:02:13.540Z,7.19
2018-09-14T06:04:46.029Z,7.33
2018-09-14T06:07:19.125Z,7.54
2018-09-14T06:09:53.475Z,7.62
2018-09-14T06:12:26.135Z,7.77
2018-09-14T06:15:00.295Z,7.83
2018-09-14T06:17:33.896Z,7.94
2018-09-14T06:20:07.271Z,8.06
2018-09-14T06:22:41.441Z,8.15
2018-09-14T06:25:19.048Z,8.22
2018-09-14T06:27:52.016Z,8.23
2018-09-14T06:30:24.888Z,8.25
2018-09-14T06:32:58.117Z,8.33
2018-09-14T06:35:34.352Z,8.40
2018-09-14T06:38:07.333Z,8.48
2018-09-14T06:40:40.195Z,8.55
2018-09-14T06:43:13.193Z,8.63
2018-09-14T06:45:45.687Z,8.74
2018-09-14T06:48:20.740Z,8.84
2018-09-14T06:50:54.374Z,8.93
2018-09-14T06:53:27.785Z,9.03
2018-09-14T06:56:01.278Z,9.18
2018-09-14T06:58:35.948Z,9.39
2018-09-14T07:01:08.509Z,9.59
2018-09-14T07:03:42.189Z,9.75
2018-09-14T07:06:16.360Z,9.90
2018-09-14T07:08:50.573Z,10.05
2018-09-14T07:11:23.326Z,10.22
2018-09-14T07:13:58.949Z,10.41
2018-09-14T07:16:32.742Z,10.51
2018-09-14T07:19:05.605Z,10.60
2018-09-14T07:21:43.093Z,10.68
2018-09-14T07:24:15.656Z,10.76
2018-09-14T07:26:48.816Z,10.89
2018-09-14T07:29:23.400Z,11.01
2018-09-14T07:32:00.628Z,11.12
2018-09-14T07:34:33.652Z,11.31
2018-09-14T07:37:08.751Z,11.60
2018-09-14T07:39:48.023Z,11.81
2018-09-14T07:42:20.976Z,12.00
2018-09-14T07:44:55.157Z,12.21
2018-09-14T07:47:29.660Z,12.40
2018-09-14T07:50:05.824Z,12.55
2018-09-14T07:52:44.161Z,12.69
2018-09-14T07:55:16.764Z,12.77
2018-09-14T07:57:54.311Z,12.87
2018-09-14T08:00:26.949Z,12.99
2018-09-14T08:02:59.968Z,13.05
2018-09-14T08:05:34.069Z,13.21
2018-09-14T08:08:07.909Z,13.53
2018-09-14T08:10:40.400Z,13.93
2018-09-14T08:13:14.596Z,14.21
2018-09-14T08:15:47.136Z,14.43
2018-09-14T08:18:21.803Z,14.66
2018-09-14T08:20:55.565Z,14.89
2018-09-14T08:23:32.228Z,15.02
2018-09-14T08:26:07.744Z,15.15
2018-09-14T08:28:42.754Z,15.32
2018-09-14T08:31:24.048Z,15.68
2018-09-14T08:33:59.460Z,15.91
2018-09-14T08:36:32.769Z,16.14
2018-09-14T08:39:12.195Z,16.33
2018-09-14T08:41:46.120Z,16.38
2018-09-14T08:44:19.032Z,16.49
2018-09-14T08:46:54.323Z,16.79
2018-09-14T08:49:33.596Z,16.96
2018-09-14T08:52:06.287Z,17.23
2018-09-14T08:54:39.642Z,17.58
2018-09-14T08:57:13.909Z,17.66
2018-09-14T08:59:49.285Z,17.62
2018-09-14T09:02:21.891Z,17.78
2018-09-14T09:04:55.288Z,18.04
2018-09-14T09:07:28.616Z,18.10
2018-09-14T09:10:01.229Z,18.31
2018-09-14T09:12:36.013Z,18.47
2018-09-14T09:15:19.629Z,18.50
2018-09-14T09:17:54.597Z,18.58
2018-09-14T09:20:29.452Z,18.73
2018-09-14T09:23:03.467Z,18.57
2018-09-14T09:25:37.712Z,18.39
2018-09-14T09:28:11.633Z,18.47
2018-09-14T09:30:46.009Z,18.64
2018-09-14T09:33:19.418Z,18.59
2018-09-14T09:35:54.287Z,18.60
2018-09-14T09:38:29.104Z,18.72
2018-09-14T09:41:03.156Z,18.66
2018-09-14T09:43:37.022Z,18.68
2018-09-14T09:46:10.401Z,18.73
2018-09-14T09:48:43.056Z,18.87
2018-09-14T09:51:16.148Z,19.03
2018-09-14T09:53:49.859Z,19.16
2018-09-14T09:56:22.420Z,19.30
2018-09-14T09:58:55.216Z,19.36
2018-09-14T10:01:33.176Z,19.80
2018-09-14T10:04:13.780Z,20.09
2018-09-14T10:06:48.019Z,20.16
2018-09-14T10:09:21.479Z,19.87
2018-09-14T10:11:55.996Z,19.89
2018-09-14T10:14:32.453Z,19.91
2018-09-14T10:17:10.481Z,19.80
2018-09-14T10:19:44.740Z,19.48
2018-09-14T10:22:21.343Z,19.52
2018-09-14T10:24:54.900Z,19.82
2018-09-14T10:27:28.222Z,20.46
2018-09-14T10:30:00.756Z,20.68
2018-09-14T10:32:38.825Z,20.75
2018-09-14T10:35:13.383Z,20.46
2018-09-14T10:37:47.305Z,20.24
2018-09-14T10:40:24.790Z,20.63
2018-09-14T10:42:57.792Z,21.06
2018-09-14T10:45:31.617Z,21.38
2018-09-14T10:48:06.014Z,21.23
2018-09-14T10:50:43.575Z,20.85
2018-09-14T10:53:20.034Z,20.27
2018-09-14T10:55:52.599Z,20.38
2018-09-14T10:58:41.156Z,20.91
2018-09-14T11:01:15.612Z,20.94
2018-09-14T11:03:49.984Z,20.73
2018-09-14T11:06:25.633Z,20.49
2018-09-14T11:08:59.911Z,20.86
2018-09-14T11:11:33.700Z,20.69
2018-09-14T11:14:12.540Z,20.09
2018-09-14T11:16:46.939Z,19.71
2018-09-14T11:19:21.029Z,19.30
2018-09-14T11:21:53.608Z,19.10
2018-09-14T11:24:27.590Z,19.18
2018-09-14T11:27:00.284Z,19.13
2018-09-14T11:29:33.773Z,19.08
2018-09-14T11:32:09.501Z,19.09
2018-09-14T11:34:44.045Z,19.24
2018-09-14T11:37:18.358Z,19.35
2018-09-14T11:39:53.345Z,19.61
2018-09-14T11:42:26.910Z,20.46
2018-09-14T11:45:02.683Z,21.31
2018-09-14T11:47:36.759Z,21.68
2018-09-14T11:50:10.650Z,21.31
2018-09-14T11:52:44.716Z,20.84
2018-09-14T11:55:17.625Z,20.34
2018-09-14T11:57:52.249Z,19.99
2018-09-14T12:00:26.238Z,19.81
2018-09-14T12:03:00.316Z,19.59
2018-09-14T12:05:35.535Z,19.51
2018-09-14T12:08:09.215Z,19.75
2018-09-14T12:10:43.196Z,20.03
2018-09-14T12:13:17.934Z,20.39
2018-09-14T12:16:08.668Z,21.08
2018-09-14T12:18:42.233Z,21.42
2018-09-14T12:21:17.319Z,21.47
2018-09-14T12:23:51.624Z,21.40
2018-09-14T12:26:26.372Z,21.52
2018-09-14T12:28:59.635Z,21.67
2018-09-14T12:31:32.505Z,21.81
2018-09-14T12:34:05.284Z,21.94
2018-09-14T12:36:38.097Z,21.80
2018-09-14T12:39:11.592Z,21.93
2018-09-14T12:41:51.898Z,21.84
2018-09-14T12:44:27.318Z,21.85
2018-09-14T12:47:02.886Z,21.98
2018-09-14T12:49:39.324Z,22.20
2018-09-14T12:52:12.972Z,22.31
2018-09-14T12:54:47.487Z,22.56
2018-09-14T12:57:22.225Z,23.01
2018-09-14T12:59:55.829Z,23.05
2018-09-14T13:02:35.353Z,23.42
2018-09-14T13:05:09.453Z,23.49
2018-09-14T13:07:44.307Z,23.32
2018-09-14T13:10:17.317Z,23.41
2018-09-14T13:12:50.876Z,23.12
2018-09-14T13:15:25.113Z,23.24
2018-09-14T13:18:01.091Z,23.44
2018-09-14T13:20:34.719Z,23.42
2018-09-14T13:23:08.277Z,23.46
2018-09-14T13:25:42.782Z,23.40
2018-09-14T13:28:17.735Z,23.16
2018-09-14T13:30:51.670Z,23.14
2018-09-14T13:33:27.730Z,23.17
2018-09-14T13:36:00.939Z,23.04
2018-09-14T13:38:34.844Z,23.17
2018-09-14T13:41:14.068Z,23.43
2018-09-14T13:43:49.039Z,23.37
2018-09-14T13:46:24.804Z,23.41
2018-09-14T13:48:58.725Z,22.92
2018-09-14T13:51:31.816Z,22.42
2018-09-14T13:54:04.658Z,22.15
2018-09-14T13:56:38.814Z,22.07
2018-09-14T13:59:12.980Z,22.02
2018-09-14T14:01:45.818Z,22.11
2018-09-14T14:04:21.987Z,21.99
2018-09-14T14:06:57.280Z,21.85
2018-09-14T14:09:30.326Z,21.91
2018-09-14T14:12:03.857Z,22.17
2018-09-14T14:14:42.713Z,22.63
2018-09-14T14:17:19.256Z,22.86
2018-09-14T14:19:53.763Z,23.32
2018-09-14T14:22:28.121Z,23.45
2018-09-14T14:25:01.132Z,23.17
2018-09-14T14:27:33.778Z,22.86
2018-09-14T14:30:08.597Z,22.94
2018-09-14T14:32:43.923Z,22.87
2018-09-14T14:35:18.120Z,22.51
2018-09-14T14:37:54.733Z,22.31
2018-09-14T14:40:27.277Z,22.40
2018-09-14T14:42:59.947Z,22.46
2018-09-14T14:45:33.155Z,22.27
2018-09-14T14:48:06.830Z,22.20
2018-09-14T14:50:40.937Z,22.50
2018-09-14T14:53:15.728Z,23.06
2018-09-14T14:55:49.745Z,23.23
2018-09-14T14:58:23.647Z,23.09
2018-09-14T15:00:58.257Z,22.79
2018-09-14T15:03:32.349Z,22.61
2018-09-14T15:06:05.956Z,22.63
2018-09-14T15:08:38.548Z,22.80
2018-09-14T15:11:11.560Z,22.83
2018-09-14T15:13:45.246Z,22.68
2018-09-14T15:16:18.177Z,22.56
2018-09-14T15:18:54.371Z,22.34
2018-09-14T15:21:27.681Z,22.19
2018-09-14T15:24:02.776Z,22.22
2018-09-14T15:26:44.621Z,22.46
2018-09-14T15:29:20.532Z,22.42
2018-09-14T15:31:56.309Z,22.26
2018-09-14T15:34:28.983Z,22.08
2018-09-14T15:37:05.479Z,22.05
2018-09-14T15:39:38.162Z,22.21
2018-09-14T15:42:11.152Z,22.34
2018-09-14T15:44:45.017Z,22.51
2018-09-14T15:47:19.116Z,22.45
2018-09-14T15:49:52.305Z,22.44
2018-09-14T15:52:24.923Z,22.59
2018-09-14T15:55:00.389Z,22.85
2018-09-14T15:57:33.415Z,22.84
2018-09-14T16:00:07.853Z,22.91
2018-09-14T16:02:40.560Z,22.82
2018-09-14T16:05:13.272Z,22.45
2018-09-14T16:07:48.205Z,22.25
2018-09-14T16:10:21.765Z,22.01
2018-09-14T16:12:55.348Z,21.65
2018-09-14T16:15:27.974Z,21.46
2018-09-14T16:18:00.790Z,21.37
2018-09-14T16:20:34.364Z,21.30
2018-09-14T16:23:08.088Z,21.41
2018-09-14T16:25:41.857Z,21.48
2018-09-14T16:28:15.601Z,21.43
2018-09-14T16:30:48.105Z,21.55
2018-09-14T16:33:23.469Z,21.64
2018-09-14T16:35:57.446Z,21.64
2018-09-14T16:38:34.076Z,21.64
2018-09-14T16:41:09.204Z,21.55
2018-09-14T16:43:44.468Z,21.37
2018-09-14T16:46:19.318Z,21.10
2018-09-14T16:48:54.557Z,20.94
2018-09-14T16:51:27.900Z,20.65
2018-09-14T16:54:03.943Z,20.44
2018-09-14T16:56:37.068Z,20.26
2018-09-14T16:59:12.285Z,20.11
2018-09-14T17:01:46.388Z,20.04
2018-09-14T17:04:21.372Z,19.98
2018-09-14T17:06:55.384Z,19.93
2018-09-14T17:09:31.375Z,19.92
2018-09-14T17:12:09.562Z,19.90
2018-09-14T17:14:42.236Z,19.91
2018-09-14T17:17:14.753Z,19.85
2018-09-14T17:19:48.363Z,19.74
2018-09-14T17:22:21.524Z,19.58
2018-09-14T17:24:59.321Z,19.33
2018-09-14T17:27:33.397Z,19.07
2018-09-14T17:30:08.619Z,18.83
2018-09-14T17:32:42.841Z,18.63
2018-09-14T17:35:17.949Z,18.44
2018-09-14T17:37:52.099Z,18.25
2018-09-14T17:40:27.972Z,18.10
2018-09-14T17:43:00.629Z,17.94
2018-09-14T17:45:35.676Z,17.81
2018-09-14T17:48:10.902Z,17.63
2018-09-14T17:50:49.695Z,17.54
2018-09-14T17:53:23.954Z,17.45
2018-09-14T17:55:57.038Z,17.31
2018-09-14T17:58:31.816Z,17.12
2018-09-14T18:01:07.270Z,16.88
2018-09-14T18:03:40.890Z,16.67
2018-09-14T18:06:18.114Z,16.45
2018-09-14T18:08:55.732Z,16.24
2018-09-14T18:11:30.848Z,16.10
2018-09-14T18:14:08.522Z,15.90
2018-09-14T18:16:43.640Z,15.73
2018-09-14T18:19:18.807Z,15.52
2018-09-14T18:21:57.665Z,15.26
2018-09-14T18:24:35.621Z,15.05
2018-09-14T18:27:10.625Z,14.89
2018-09-14T18:29:47.031Z,14.74
2018-09-14T18:32:21.327Z,14.59
2018-09-14T18:34:54.733Z,14.44
2018-09-14T18:37:30.159Z,14.27
2018-09-14T18:40:04.179Z,14.11
2018-09-14T18:42:40.557Z,14.04
2018-09-14T18:45:18.251Z,14.03
2018-09-14T18:47:51.589Z,14.00
2018-09-14T18:50:27.417Z,13.95
2018-09-14T18:53:02.381Z,13.87
2018-09-14T18:55:35.693Z,13.84
2018-09-14T18:58:11.706Z,13.82
2018-09-14T19:00:53.587Z,13.71
2018-09-14T19:03:31.075Z,13.68
2018-09-14T19:06:06.048Z,13.63
2018-09-14T19:08:44.811Z,13.62
2018-09-14T19:11:22.761Z,13.56
2018-09-14T19:13:58.906Z,13.47
2018-09-14T19:16:33.949Z,13.33
2018-09-14T19:19:07.635Z,13.19
2018-09-14T19:21:44.399Z,13.09
2018-09-14T19:24:18.576Z,12.99
2018-09-14T19:26:51.177Z,12.93
2018-09-14T19:29:31.733Z,12.91
2018-09-14T19:32:07.850Z,12.86
2018-09-14T19:34:43.719Z,12.81
2018-09-14T19:37:23.899Z,12.72
2018-09-14T19:39:57.325Z,12.70
2018-09-14T19:42:30.795Z,12.67
2018-09-14T19:45:07.466Z,12.57
2018-09-14T19:47:43.385Z,12.57
2018-09-14T19:50:16.312Z,12.63
2018-09-14T19:52:49.546Z,12.68
2018-09-14T19:55:26.561Z,12.70
2018-09-14T19:58:03.058Z,12.67
2018-09-14T20:00:40.819Z,12.58
2018-09-14T20:03:15.485Z,12.45
2018-09-14T20:05:51.709Z,12.28
2018-09-14T20:08:28.697Z,12.15
2018-09-14T20:11:02.741Z,12.03
2018-09-14T20:13:40.412Z,11.95
2018-09-14T20:16:14.987Z,11.91
2018-09-14T20:18:52.119Z,11.94
2018-09-14T20:21:26.278Z,11.95
2018-09-14T20:24:01.235Z,12.03
2018-09-14T20:26:35.388Z,12.24
2018-09-14T20:29:12.668Z,12.28
2018-09-14T20:31:47.097Z,12.33
2018-09-14T20:34:20.317Z,12.43
2018-09-14T20:36:54.445Z,12.49
2018-09-14T20:39:27.309Z,12.53
2018-09-14T20:41:59.814Z,12.65
2018-09-14T20:44:34.679Z,12.65
2018-09-14T20:47:16.036Z,12.65
2018-09-14T20:49:50.892Z,12.76
2018-09-14T20:52:27.062Z,12.77
2018-09-14T20:54:59.701Z,12.75
2018-09-14T20:57:33.653Z,12.77
2018-09-14T21:00:09.174Z,12.78
2018-09-14T21:02:43.828Z,12.90
2018-09-14T21:05:17.286Z,12.99
2018-09-14T21:07:51.984Z,13.07
2018-09-14T21:10:26.904Z,13.19
2018-09-14T21:13:01.743Z,13.21
2018-09-14T21:15:36.550Z,13.13
2018-09-14T21:18:09.697Z,13.00
2018-09-14T21:20:44.353Z,12.94
2018-09-14T21:23:18.127Z,12.96
2018-09-14T21:25:52.732Z,13.01
2018-09-14T21:28:27.646Z,13.14
2018-09-14T21:31:03.988Z,13.51
2018-09-14T21:33:36.901Z,13.83
2018-09-14T21:36:10.033Z,13.92
2018-09-14T21:38:45.343Z,14.11
2018-09-14T21:41:24.402Z,14.16
2018-09-14T21:44:03.588Z,14.17
2018-09-14T21:46:38.648Z,14.21
2018-09-14T21:49:14.445Z,14.31
2018-09-14T21:51:46.937Z,14.39
2018-09-14T21:54:19.625Z,14.43
2018-09-14T21:56:54.698Z,14.48
2018-09-14T21:59:30.166Z,14.55
2018-09-14T22:02:08.828Z,14.60
2018-09-14T22:04:48.490Z,14.66
2018-09-14T22:07:23.708Z,14.71
2018-09-14T22:09:59.629Z,14.75
2018-09-14T22:12:35.149Z,14.76
2018-09-14T22:15:07.646Z,14.78
2018-09-14T22:17:44.161Z,14.80
2018-09-14T22:20:22.876Z,14.82
2018-09-14T22:22:56.600Z,14.83
2018-09-14T22:25:31.549Z,14.85
2018-09-14T22:28:06.603Z,14.83
2018-09-14T22:30:46.472Z,14.82
2018-09-14T22:33:21.917Z,14.86
2018-09-14T22:35:55.820Z,14.86
2018-09-14T22:38:29.280Z,14.85
2018-09-14T22:41:02.671Z,14.84
2018-09-14T22:43:35.642Z,14.83
2018-09-14T22:46:10.485Z,14.89
2018-09-14T22:48:47.020Z,14.91
2018-09-14T22:51:19.891Z,14.98
2018-09-14T22:53:52.506Z,14.97
2018-09-14T22:56:25.321Z,14.94
2018-09-14T22:58:57.876Z,14.90
2018-09-14T23:01:36.490Z,14.91
2018-09-14T23:04:10.191Z,14.90
2018-09-14T23:06:42.804Z,14.88
2018-09-14T23:09:16.745Z,14.85
2018-09-14T23:11:50.973Z,14.81
2018-09-14T23:14:24.483Z,14.77
2018-09-14T23:17:00.969Z,14.76
2018-09-14T23:19:33.611Z,14.74
2018-09-14T23:22:08.666Z,14.72
2018-09-14T23:24:43.032Z,14.72
2018-09-14T23:27:16.134Z,14.73
2018-09-14T23:29:48.811Z,14.74
2018-09-14T23:32:22.714Z,14.80
2018-09-14T23:34:55.400Z,14.81
2018-09-14T23:37:30.976Z,14.79
2018-09-14T23:40:06.466Z,14.74
2018-09-14T23:42:41.500Z,14.64
2018-09-14T23:45:18.934Z,14.44
2018-09-14T23:47:52.764Z,14.20
2018-09-14T23:50:26.936Z,13.87
2018-09-14T23:53:00.034Z,13.51
2018-09-14T23:55:34.668Z,13.19
2018-09-14T23:58:11.337Z,12.89
